createdAt,value
2022-11-20T00:01:21.369Z,-3.00
2022-11-20T00:03:56.000Z,-3.00
2022-11-20T00:06:30.681Z,-3.00
2022-11-20T00:09:04.274Z,-3.00
2022-11-20T00:11:38.188Z,-2.90
2022-11-20T00:14:12.377Z,-3.00
2022-11-20T00:16:47.478Z,-3.10
2022-11-20T00:19:20.885Z,-3.10
2022-11-20T00:21:56.364Z,-3.00
2022-11-20T00:24:29.603Z,-3.10
2022-11-20T00:27:03.222Z,-3.10
2022-11-20T00:29:36.474Z,-3.10
2022-11-20T00:32:11.270Z,-3.10
2022-11-20T00:34:44.532Z,-3.10
2022-11-20T00:37:17.848Z,-3.10
2022-11-20T00:39:51.132Z,-3.20
2022-11-20T00:42:24.359Z,-3.10
2022-11-20T00:44:57.794Z,-3.20
2022-11-20T00:47:32.441Z,-3.20
2022-11-20T00:50:06.765Z,-3.10
2022-11-20T00:52:40.182Z,-3.20
2022-11-20T00:55:13.432Z,-3.20
2022-11-20T00:57:47.138Z,-3.20
2022-11-20T01:00:20.683Z,-3.20
2022-11-20T01:02:57.706Z,-3.20
2022-11-20T01:05:30.946Z,-3.20
2022-11-20T01:08:04.549Z,-3.20
2022-11-20T01:10:38.151Z,-3.20
2022-11-20T01:13:29.065Z,-3.30
2022-11-20T01:16:05.228Z,-3.30
2022-11-20T01:18:42.344Z,-3.20
2022-11-20T01:21:18.296Z,-3.20
2022-11-20T01:23:52.545Z,-3.20
2022-11-20T01:26:27.142Z,-3.20
2022-11-20T01:29:01.001Z,-3.20
2022-11-20T01:31:36.207Z,-3.20
2022-11-20T01:34:14.186Z,-3.20
2022-11-20T01:36:48.010Z,-3.20
2022-11-20T01:39:24.088Z,-3.20
2022-11-20T01:42:15.621Z,-3.20
2022-11-20T01:44:55.325Z,-3.20
2022-11-20T01:47:35.142Z,-3.10
2022-11-20T01:50:19.048Z,-3.10
2022-11-20T01:52:56.999Z,-3.00
2022-11-20T01:55:35.102Z,-3.10
2022-11-20T01:58:08.670Z,-3.00
2022-11-20T02:00:42.987Z,-3.00
2022-11-20T02:03:19.463Z,-3.00
2022-11-20T02:06:00.091Z,-3.00
2022-11-20T02:08:34.456Z,-3.00
2022-11-20T02:11:07.830Z,-3.00
2022-11-20T02:13:46.337Z,-3.00
2022-11-20T02:16:25.929Z,-3.00
2022-11-20T02:19:03.415Z,-3.00
2022-11-20T02:21:44.860Z,-3.00
2022-11-20T02:24:21.734Z,-3.00
2022-11-20T02:26:57.935Z,-3.00
2022-11-20T02:29:36.214Z,-3.00
2022-11-20T02:32:20.653Z,-3.00
2022-11-20T02:34:54.524Z,-3.00
2022-11-20T02:37:34.615Z,-3.00
2022-11-20T02:40:11.094Z,-3.10
2022-11-20T02:42:44.358Z,-3.10
2022-11-20T02:45:18.148Z,-3.10
2022-11-20T02:47:51.590Z,-3.10
2022-11-20T02:50:24.814Z,-3.10
2022-11-20T02:52:58.432Z,-3.10
2022-11-20T02:55:33.208Z,-3.10
2022-11-20T02:58:06.895Z,-3.10
2022-11-20T03:00:40.142Z,-3.10
2022-11-20T03:03:13.897Z,-3.20
2022-11-20T03:05:47.336Z,-3.20
2022-11-20T03:08:20.630Z,-3.20
2022-11-20T03:10:55.274Z,-3.10
2022-11-20T03:13:28.515Z,-3.10
2022-11-20T03:16:11.840Z,-3.10
2022-11-20T03:18:45.565Z,-3.10
2022-11-20T03:21:19.051Z,-3.10
2022-11-20T03:23:52.285Z,-3.10
2022-11-20T03:26:28.769Z,-3.20
2022-11-20T03:29:04.200Z,-3.20
2022-11-20T03:31:41.467Z,-3.20
2022-11-20T03:34:14.765Z,-3.20
2022-11-20T03:36:48.007Z,-3.20
2022-11-20T03:39:21.940Z,-3.30
2022-11-20T03:41:56.770Z,-3.30
2022-11-20T03:44:30.214Z,-3.30
2022-11-20T03:47:03.456Z,-3.40
2022-11-20T03:49:36.786Z,-3.40
2022-11-20T03:52:10.183Z,-3.40
2022-11-20T03:54:43.926Z,-3.50
2022-11-20T03:57:18.566Z,-3.50
2022-11-20T03:59:51.829Z,-3.50
2022-11-20T04:02:25.262Z,-3.50
2022-11-20T04:04:58.525Z,-3.50
2022-11-20T04:07:32.669Z,-3.50
2022-11-20T04:10:06.912Z,-3.50
2022-11-20T04:12:41.703Z,-3.50
2022-11-20T04:15:14.987Z,-3.50
2022-11-20T04:17:48.527Z,-3.50
2022-11-20T04:20:21.982Z,-3.50
2022-11-20T04:22:56.742Z,-3.50
2022-11-20T04:25:30.142Z,-3.50
2022-11-20T04:28:04.956Z,-3.50
2022-11-20T04:30:38.721Z,-3.50
2022-11-20T04:33:12.086Z,-3.50
2022-11-20T04:35:48.452Z,-3.60
2022-11-20T04:38:21.737Z,-3.60
2022-11-20T04:40:59.119Z,-3.60
2022-11-20T04:43:34.474Z,-3.60
2022-11-20T04:46:08.063Z,-3.60
2022-11-20T04:48:41.355Z,-3.60
2022-11-20T04:51:15.275Z,-3.60
2022-11-20T04:53:48.674Z,-3.60
2022-11-20T04:56:22.228Z,-3.70
2022-11-20T04:58:57.047Z,-3.70
2022-11-20T05:01:30.674Z,-3.70
2022-11-20T05:04:04.136Z,-3.70
2022-11-20T05:06:37.410Z,-3.70
2022-11-20T05:09:11.083Z,-3.70
2022-11-20T05:11:47.046Z,-3.70
2022-11-20T05:14:23.816Z,-3.80
2022-11-20T05:16:57.148Z,-3.80
2022-11-20T05:19:30.600Z,-3.80
2022-11-20T05:22:03.888Z,-3.80
2022-11-20T05:24:37.517Z,-3.80
2022-11-20T05:27:10.771Z,-3.80
2022-11-20T05:29:45.598Z,-3.90
2022-11-20T05:32:18.852Z,-3.90
2022-11-20T05:34:52.084Z,-4.00
2022-11-20T05:37:25.333Z,-4.00
2022-11-20T05:39:58.798Z,-4.00
2022-11-20T05:42:32.821Z,-4.00
2022-11-20T05:45:08.838Z,-4.00
2022-11-20T05:47:42.082Z,-4.10
2022-11-20T05:50:15.741Z,-4.10
2022-11-20T05:52:49.331Z,-4.10
2022-11-20T05:55:22.844Z,-4.10
2022-11-20T05:57:56.312Z,-4.10
2022-11-20T06:00:30.959Z,-4.10
2022-11-20T06:03:04.443Z,-4.10
2022-11-20T06:05:38.080Z,-4.10
2022-11-20T06:08:11.369Z,-4.10
2022-11-20T06:10:44.944Z,-4.10
2022-11-20T06:13:18.190Z,-4.20
2022-11-20T06:15:54.214Z,-4.10
2022-11-20T06:18:29.595Z,-4.10
2022-11-20T06:21:04.609Z,-4.20
2022-11-20T06:23:38.472Z,-4.10
2022-11-20T06:26:14.389Z,-4.10
2022-11-20T06:28:48.176Z,-4.10
2022-11-20T06:31:24.315Z,-4.10
2022-11-20T06:33:57.810Z,-4.10
2022-11-20T06:36:31.110Z,-4.10
2022-11-20T06:39:05.127Z,-4.10
2022-11-20T06:41:38.371Z,-4.10
2022-11-20T06:44:11.734Z,-4.00
2022-11-20T06:46:46.395Z,-4.00
2022-11-20T06:49:20.596Z,-4.00
2022-11-20T06:51:54.184Z,-3.90
2022-11-20T06:54:27.474Z,-3.90
2022-11-20T06:57:00.826Z,-3.80
2022-11-20T06:59:34.381Z,-3.80
2022-11-20T07:02:12.068Z,-3.70
2022-11-20T07:04:45.384Z,-3.70
2022-11-20T07:07:19.059Z,-3.70
2022-11-20T07:09:52.384Z,-3.60
2022-11-20T07:12:25.657Z,-3.60
2022-11-20T07:14:58.907Z,-3.60
2022-11-20T07:17:33.552Z,-3.50
2022-11-20T07:20:07.669Z,-3.50
2022-11-20T07:22:41.282Z,-3.50
2022-11-20T07:25:14.564Z,-3.40
2022-11-20T07:27:47.828Z,-3.30
2022-11-20T07:30:21.799Z,-3.30
2022-11-20T07:32:57.968Z,-3.20
2022-11-20T07:35:31.250Z,-3.10
2022-11-20T07:38:04.530Z,-3.10
2022-11-20T07:40:37.974Z,-3.10
2022-11-20T07:43:11.239Z,-3.00
2022-11-20T07:45:44.807Z,-2.90
2022-11-20T07:48:19.428Z,-2.90
2022-11-20T07:50:56.123Z,-2.80
2022-11-20T07:53:29.388Z,-2.70
2022-11-20T07:56:03.822Z,-2.70
2022-11-20T07:58:37.672Z,-2.60
2022-11-20T08:01:11.033Z,-2.60
2022-11-20T08:03:46.054Z,-2.60
2022-11-20T08:06:20.563Z,-2.50
2022-11-20T08:08:54.107Z,-2.50
2022-11-20T08:11:44.466Z,-2.40
2022-11-20T08:14:18.206Z,-2.30
2022-11-20T08:16:51.780Z,-2.20
2022-11-20T08:19:26.584Z,-2.10
2022-11-20T08:22:00.030Z,-2.00
2022-11-20T08:24:33.269Z,-1.90
2022-11-20T08:27:07.026Z,-1.90
2022-11-20T08:29:40.458Z,-1.80
2022-11-20T08:32:13.801Z,-1.70
2022-11-20T08:34:48.792Z,-1.50
2022-11-20T08:37:22.045Z,-1.40
2022-11-20T08:39:58.246Z,-1.20
2022-11-20T08:42:31.496Z,-1.00
2022-11-20T08:45:05.745Z,-0.70
2022-11-20T08:47:39.259Z,-0.50
2022-11-20T08:50:14.954Z,-0.20
2022-11-20T08:52:48.693Z,0.00
2022-11-20T08:55:21.953Z,0.20
2022-11-20T08:57:55.379Z,0.40
2022-11-20T09:00:28.661Z,0.40
2022-11-20T09:03:02.813Z,0.50
2022-11-20T09:05:37.660Z,0.60
2022-11-20T09:08:11.041Z,0.80
2022-11-20T09:10:44.446Z,1.00
2022-11-20T09:13:17.700Z,1.00
2022-11-20T09:15:55.422Z,1.20
2022-11-20T09:18:32.584Z,1.40
2022-11-20T09:21:08.909Z,1.60
2022-11-20T09:23:42.504Z,1.80
2022-11-20T09:26:16.412Z,2.00
2022-11-20T09:28:52.836Z,2.20
2022-11-20T09:31:28.612Z,2.40
2022-11-20T09:34:01.925Z,2.50
2022-11-20T09:36:36.588Z,2.40
2022-11-20T09:39:09.929Z,2.30
2022-11-20T09:42:12.001Z,2.30
2022-11-20T09:45:00.129Z,2.20
2022-11-20T09:47:44.588Z,2.20
2022-11-20T09:50:28.822Z,2.10
2022-11-20T09:53:17.276Z,2.10
2022-11-20T09:55:51.585Z,2.10
2022-11-20T09:58:33.160Z,2.10
2022-11-20T10:01:13.519Z,2.10
2022-11-20T10:03:56.482Z,2.10
2022-11-20T10:06:33.372Z,2.10
2022-11-20T10:09:21.196Z,2.00
2022-11-20T10:12:01.057Z,2.10
2022-11-20T10:14:44.026Z,2.10
2022-11-20T10:17:27.439Z,2.10
2022-11-20T10:20:21.520Z,2.10
2022-11-20T10:23:15.026Z,2.10
2022-11-20T10:25:56.844Z,2.10
2022-11-20T10:28:55.438Z,2.10
2022-11-20T10:31:35.033Z,2.10
2022-11-20T10:34:22.658Z,2.20
2022-11-20T10:37:00.511Z,2.20
2022-11-20T10:39:37.635Z,2.40
2022-11-20T10:42:18.134Z,2.40
2022-11-20T10:45:05.998Z,2.50
2022-11-20T10:47:42.152Z,2.50
2022-11-20T10:50:22.490Z,2.50
2022-11-20T10:53:06.603Z,2.60
2022-11-20T10:55:47.067Z,2.60
2022-11-20T10:58:32.684Z,2.60
2022-11-20T11:01:06.974Z,2.60
2022-11-20T11:03:40.433Z,2.60
2022-11-20T11:06:20.562Z,2.60
2022-11-20T11:08:57.398Z,2.60
2022-11-20T11:11:33.001Z,2.70
2022-11-20T11:14:13.215Z,2.70
2022-11-20T11:16:52.919Z,2.70
2022-11-20T11:19:26.440Z,2.80
2022-11-20T11:22:00.035Z,3.00
2022-11-20T11:24:42.817Z,3.10
2022-11-20T11:27:19.007Z,3.10
2022-11-20T11:30:06.059Z,3.30
2022-11-20T11:32:39.366Z,3.70
2022-11-20T11:35:24.839Z,3.90
2022-11-20T11:38:06.478Z,4.30
2022-11-20T11:40:41.825Z,4.50
2022-11-20T11:43:39.789Z,4.70
2022-11-20T11:46:29.355Z,4.90
2022-11-20T11:49:12.442Z,5.30
2022-11-20T11:51:58.803Z,5.50
2022-11-20T11:54:37.017Z,5.80
2022-11-20T11:57:25.536Z,6.10
2022-11-20T12:00:05.532Z,6.30
2022-11-20T12:02:51.063Z,6.30
2022-11-20T12:05:27.688Z,6.30
2022-11-20T12:08:12.203Z,6.10
2022-11-20T12:10:50.709Z,5.90
2022-11-20T12:13:36.496Z,5.80
2022-11-20T12:16:14.704Z,5.70
2022-11-20T12:18:51.547Z,5.60
2022-11-20T12:21:33.551Z,5.60
2022-11-20T12:24:21.945Z,5.60
2022-11-20T12:27:06.288Z,5.60
2022-11-20T12:29:52.390Z,5.50
2022-11-20T12:32:55.431Z,5.50
2022-11-20T12:35:46.896Z,5.40
2022-11-20T12:38:55.891Z,5.20
2022-11-20T12:42:02.943Z,5.10
2022-11-20T12:45:11.303Z,4.90
2022-11-20T12:47:58.221Z,4.90
2022-11-20T12:51:08.210Z,4.80
2022-11-20T12:53:46.677Z,4.70
2022-11-20T12:56:32.204Z,4.70
2022-11-20T12:59:18.719Z,4.60
2022-11-20T13:01:55.314Z,4.60
2022-11-20T13:05:01.680Z,4.60
2022-11-20T13:07:38.334Z,4.60
2022-11-20T13:10:20.286Z,4.60
2022-11-20T13:12:59.714Z,4.70
2022-11-20T13:15:44.359Z,4.70
2022-11-20T13:18:18.435Z,4.70
2022-11-20T13:20:52.781Z,4.80
2022-11-20T13:23:29.156Z,4.80
2022-11-20T13:26:08.250Z,4.70
2022-11-20T13:28:42.511Z,4.90
2022-11-20T13:31:31.841Z,5.00
2022-11-20T13:34:08.117Z,5.20
2022-11-20T13:36:52.699Z,5.20
2022-11-20T13:39:32.798Z,5.20
2022-11-20T13:42:27.077Z,5.20
2022-11-20T13:45:10.356Z,5.20
2022-11-20T13:47:50.572Z,5.10
2022-11-20T13:50:41.528Z,5.00
2022-11-20T13:53:38.650Z,4.90
2022-11-20T13:56:25.566Z,4.80
2022-11-20T13:59:10.814Z,4.70
2022-11-20T14:01:48.608Z,4.60
2022-11-20T14:04:28.725Z,4.50
2022-11-20T14:07:02.695Z,4.30
2022-11-20T14:09:36.465Z,4.20
2022-11-20T14:12:19.733Z,4.10
2022-11-20T14:14:54.575Z,3.90
2022-11-20T14:17:33.913Z,3.80
2022-11-20T14:20:14.525Z,3.60
2022-11-20T14:22:51.744Z,3.50
2022-11-20T14:25:28.200Z,3.40
2022-11-20T14:28:04.717Z,3.30
2022-11-20T14:30:44.887Z,3.20
2022-11-20T14:33:18.769Z,3.10
2022-11-20T14:35:53.863Z,3.00
2022-11-20T14:38:29.872Z,2.80
2022-11-20T14:41:09.777Z,2.70
2022-11-20T14:43:48.793Z,2.70
2022-11-20T14:46:22.885Z,2.60
2022-11-20T14:48:58.282Z,2.50
2022-11-20T14:51:35.964Z,2.50
2022-11-20T14:54:14.042Z,2.40
2022-11-20T14:56:58.462Z,2.40
2022-11-20T14:59:34.678Z,2.30
2022-11-20T15:02:11.786Z,2.20
2022-11-20T15:04:50.511Z,2.00
2022-11-20T15:07:28.160Z,1.90
2022-11-20T15:10:02.956Z,1.80
2022-11-20T15:12:39.600Z,1.80
2022-11-20T15:15:17.218Z,1.70
2022-11-20T15:17:50.724Z,1.70
2022-11-20T15:20:28.746Z,1.60
2022-11-20T15:23:02.042Z,1.60
2022-11-20T15:25:35.614Z,1.60
2022-11-20T15:28:17.371Z,1.60
2022-11-20T15:30:52.462Z,1.50
2022-11-20T15:33:25.762Z,1.50
2022-11-20T15:35:59.244Z,1.40
2022-11-20T15:38:32.538Z,1.40
2022-11-20T15:41:06.314Z,1.40
2022-11-20T15:43:39.863Z,1.30
2022-11-20T15:46:17.636Z,1.30
2022-11-20T15:48:54.205Z,1.20
2022-11-20T15:51:29.478Z,1.20
2022-11-20T15:54:03.321Z,1.10
2022-11-20T15:56:36.561Z,1.10
2022-11-20T15:59:09.865Z,1.00
2022-11-20T16:01:44.902Z,1.00
2022-11-20T16:04:19.378Z,1.00
2022-11-20T16:06:52.679Z,0.90
2022-11-20T16:09:25.922Z,0.90
2022-11-20T16:12:00.411Z,0.80
2022-11-20T16:15:08.223Z,0.60
2022-11-20T16:17:47.076Z,0.60
2022-11-20T16:20:20.689Z,0.50
2022-11-20T16:22:55.037Z,0.40
2022-11-20T16:25:29.510Z,0.40
2022-11-20T16:28:02.996Z,0.40
2022-11-20T16:30:36.393Z,0.40
2022-11-20T16:33:14.086Z,0.30
2022-11-20T16:35:47.504Z,0.30
2022-11-20T16:38:20.742Z,0.30
2022-11-20T16:40:54.023Z,0.30
2022-11-20T16:43:27.269Z,0.20
2022-11-20T16:46:00.521Z,0.10
2022-11-20T16:48:35.182Z,0.10
2022-11-20T16:51:11.121Z,0.00
2022-11-20T16:53:44.515Z,0.10
2022-11-20T16:56:18.905Z,0.00
2022-11-20T16:58:53.056Z,-0.10
2022-11-20T17:01:28.734Z,-0.10
2022-11-20T17:04:05.502Z,-0.10
2022-11-20T17:06:41.399Z,-0.10
2022-11-20T17:09:15.395Z,-0.20
2022-11-20T17:11:50.268Z,-0.20
2022-11-20T17:14:23.721Z,-0.30
2022-11-20T17:16:57.203Z,-0.40
2022-11-20T17:19:31.913Z,-0.40
2022-11-20T17:22:05.279Z,-0.40
2022-11-20T17:24:38.665Z,-0.50
2022-11-20T17:27:12.630Z,-0.50
2022-11-20T17:29:46.738Z,-0.50
2022-11-20T17:32:20.099Z,-0.50
2022-11-20T17:34:54.787Z,-0.50
2022-11-20T17:37:28.036Z,-0.60
2022-11-20T17:40:01.297Z,-0.60
2022-11-20T17:42:36.945Z,-0.70
2022-11-20T17:45:10.491Z,-0.70
2022-11-20T17:47:46.503Z,-0.70
2022-11-20T17:50:21.200Z,-0.80
2022-11-20T17:52:54.772Z,-0.80
2022-11-20T17:55:51.475Z,-0.80
2022-11-20T17:58:28.280Z,-0.80
2022-11-20T18:01:06.882Z,-0.90
2022-11-20T18:03:40.813Z,-0.90
2022-11-20T18:06:18.132Z,-1.00
2022-11-20T18:08:52.308Z,-1.00
2022-11-20T18:11:27.253Z,-1.10
2022-11-20T18:14:18.986Z,-1.20
2022-11-20T18:16:55.682Z,-1.20
2022-11-20T18:19:32.803Z,-1.20
2022-11-20T18:22:07.978Z,-1.30
2022-11-20T18:24:42.143Z,-1.30
2022-11-20T18:27:18.387Z,-1.40
2022-11-20T18:29:52.402Z,-1.40
2022-11-20T18:32:25.871Z,-1.50
2022-11-20T18:34:59.174Z,-1.50
2022-11-20T18:37:34.278Z,-1.50
2022-11-20T18:40:09.185Z,-1.50
2022-11-20T18:43:00.043Z,-1.50
2022-11-20T18:45:33.420Z,-1.60
2022-11-20T18:48:06.908Z,-1.60
2022-11-20T18:50:40.199Z,-1.70
2022-11-20T18:53:14.903Z,-1.70
2022-11-20T18:55:48.205Z,-1.70
2022-11-20T18:58:21.512Z,-1.80
2022-11-20T19:00:54.781Z,-1.80
2022-11-20T19:03:28.752Z,-1.80
2022-11-20T19:06:02.123Z,-1.90
2022-11-20T19:08:36.913Z,-1.90
2022-11-20T19:11:11.482Z,-1.90
2022-11-20T19:13:44.778Z,-2.00
2022-11-20T19:16:20.367Z,-1.90
2022-11-20T19:18:56.414Z,-2.00
2022-11-20T19:21:30.477Z,-2.10
2022-11-20T19:24:06.090Z,-2.10
2022-11-20T19:26:39.739Z,-2.10
2022-11-20T19:29:15.508Z,-2.10
2022-11-20T19:31:48.912Z,-2.10
2022-11-20T19:34:22.355Z,-2.20
2022-11-20T19:36:55.615Z,-2.30
2022-11-20T19:39:30.460Z,-2.20
2022-11-20T19:42:03.745Z,-2.20
2022-11-20T19:44:37.059Z,-2.30
2022-11-20T19:47:14.288Z,-2.30
2022-11-20T19:49:48.049Z,-2.30
2022-11-20T19:52:21.296Z,-2.40
2022-11-20T19:54:56.273Z,-2.40
2022-11-20T19:57:29.546Z,-2.40
2022-11-20T20:00:02.786Z,-2.40
2022-11-20T20:02:38.328Z,-2.30
2022-11-20T20:05:11.628Z,-2.40
2022-11-20T20:07:44.942Z,-2.50
2022-11-20T20:10:20.412Z,-2.50
2022-11-20T20:12:54.230Z,-2.50
2022-11-20T20:15:27.660Z,-2.50
2022-11-20T20:18:00.965Z,-2.50
2022-11-20T20:20:34.246Z,-2.50
2022-11-20T20:23:08.107Z,-2.50
2022-11-20T20:25:42.744Z,-2.50
2022-11-20T20:28:16.547Z,-2.60
2022-11-20T20:30:49.985Z,-2.60
2022-11-20T20:33:24.469Z,-2.60
2022-11-20T20:36:00.599Z,-2.60
2022-11-20T20:38:34.216Z,-2.70
2022-11-20T20:41:09.081Z,-2.70
2022-11-20T20:43:59.970Z,-2.70
2022-11-20T20:46:33.475Z,-2.70
2022-11-20T20:49:07.405Z,-2.80
2022-11-20T20:51:40.665Z,-2.80
2022-11-20T20:54:13.921Z,-2.80
2022-11-20T20:56:48.539Z,-2.80
2022-11-20T20:59:22.156Z,-2.80
2022-11-20T21:01:55.616Z,-2.90
2022-11-20T21:04:28.961Z,-2.80
2022-11-20T21:07:02.262Z,-2.90
2022-11-20T21:09:35.624Z,-2.90
2022-11-20T21:12:10.294Z,-2.90
2022-11-20T21:14:44.096Z,-3.00
2022-11-20T21:17:17.370Z,-3.00
2022-11-20T21:19:50.591Z,-3.00
2022-11-20T21:22:22.879Z,-3.00
2022-11-20T21:24:56.154Z,-3.10
2022-11-20T21:27:30.877Z,-3.10
2022-11-20T21:30:04.676Z,-3.10
2022-11-20T21:32:38.036Z,-3.20
2022-11-20T21:35:11.477Z,-3.20
2022-11-20T21:37:44.795Z,-3.20
2022-11-20T21:40:18.330Z,-3.20
2022-11-20T21:42:54.630Z,-3.20
2022-11-20T21:45:28.457Z,-3.20
2022-11-20T21:48:01.760Z,-3.30
2022-11-20T21:50:36.109Z,-3.30
2022-11-20T21:53:09.383Z,-3.30
2022-11-20T21:55:42.638Z,-3.20
2022-11-20T21:58:17.349Z,-3.20
2022-11-20T22:00:50.878Z,-3.20
2022-11-20T22:03:24.579Z,-3.20
2022-11-20T22:05:58.642Z,-3.20
2022-11-20T22:08:32.106Z,-3.20
2022-11-20T22:11:07.621Z,-3.30
2022-11-20T22:14:00.222Z,-3.20
2022-11-20T22:16:34.322Z,-3.30
2022-11-20T22:19:08.542Z,-3.30
2022-11-20T22:21:41.942Z,-3.30
2022-11-20T22:24:18.153Z,-3.30
2022-11-20T22:26:51.727Z,-3.30
2022-11-20T22:29:26.386Z,-3.40
2022-11-20T22:31:59.641Z,-3.40
2022-11-20T22:34:33.143Z,-3.40
2022-11-20T22:37:06.461Z,-3.50
2022-11-20T22:39:39.700Z,-3.50
2022-11-20T22:42:12.940Z,-3.50
2022-11-20T22:44:47.524Z,-3.50
2022-11-20T22:47:20.952Z,-3.50
2022-11-20T22:49:54.228Z,-3.50
2022-11-20T22:52:27.609Z,-3.50
2022-11-20T22:55:00.858Z,-3.50
2022-11-20T22:57:34.143Z,-3.50
2022-11-20T23:00:10.570Z,-3.50
2022-11-20T23:02:45.247Z,-3.50
2022-11-20T23:05:18.484Z,-3.50
2022-11-20T23:07:51.757Z,-3.60
2022-11-20T23:10:25.054Z,-3.60
2022-11-20T23:12:58.355Z,-3.60
2022-11-20T23:15:34.575Z,-3.70
2022-11-20T23:18:07.895Z,-3.70
2022-11-20T23:20:41.208Z,-3.70
2022-11-20T23:23:14.487Z,-3.70
2022-11-20T23:25:47.762Z,-3.70
2022-11-20T23:28:21.024Z,-3.70
2022-11-20T23:31:14.147Z,-3.70
2022-11-20T23:33:48.041Z,-3.80
2022-11-20T23:36:21.382Z,-3.80
2022-11-20T23:38:54.643Z,-3.80
2022-11-20T23:41:28.273Z,-3.80
2022-11-20T23:44:01.508Z,-3.80
2022-11-20T23:46:36.579Z,-3.80
2022-11-20T23:49:10.088Z,-3.80
2022-11-20T23:51:43.558Z,-3.80
2022-11-20T23:54:16.973Z,-3.90
2022-11-20T23:56:50.558Z,-3.90
2022-11-20T23:59:23.816Z,-3.90
